sensor_id;sensor_type;location;lat;lon;timestamp;P1;durP1;ratioP1;P2;durP2;ratioP2
29546;SDS011;40782;47.264;11.330;2024-02-21T00:00:23;8.90;;;4.75;;
29546;SDS011;40782;47.264;11.330;2024-02-21T00:02:50;3.53;;;3.10;;
29546;SDS011;40782;47.264;11.330;2024-02-21T00:05:18;4.80;;;2.47;;
29546;SDS011;40782;47.264;11.330;2024-02-21T00:07:45;3.97;;;2.80;;
29546;SDS011;40782;47.264;11.330;2024-02-21T00:10:13;3.80;;;2.67;;
29546;SDS011;40782;47.264;11.330;2024-02-21T00:12:41;5.35;;;3.05;;
29546;SDS011;40782;47.264;11.330;2024-02-21T00:15:08;4.35;;;3.08;;
29546;SDS011;40782;47.264;11.330;2024-02-21T00:17:36;5.47;;;3.53;;
29546;SDS011;40782;47.264;11.330;2024-02-21T00:20:03;5.80;;;3.45;;
29546;SDS011;40782;47.264;11.330;2024-02-21T00:22:31;5.43;;;3.22;;
29546;SDS011;40782;47.264;11.330;2024-02-21T00:24:58;5.15;;;3.22;;
29546;SDS011;40782;47.264;11.330;2024-02-21T00:27:27;5.18;;;3.40;;
29546;SDS011;40782;47.264;11.330;2024-02-21T00:29:54;6.28;;;3.63;;
29546;SDS011;40782;47.264;11.330;2024-02-21T00:32:21;4.57;;;2.90;;
29546;SDS011;40782;47.264;11.330;2024-02-21T00:34:48;3.42;;;2.78;;
29546;SDS011;40782;47.264;11.330;2024-02-21T00:37:15;6.05;;;2.65;;
29546;SDS011;40782;47.264;11.330;2024-02-21T00:39:42;4.68;;;2.70;;
29546;SDS011;40782;47.264;11.330;2024-02-21T00:42:10;4.30;;;2.70;;
29546;SDS011;40782;47.264;11.330;2024-02-21T00:44:38;3.53;;;2.33;;
29546;SDS011;40782;47.264;11.330;2024-02-21T00:47:05;2.72;;;2.50;;
29546;SDS011;40782;47.264;11.330;2024-02-21T00:49:33;5.47;;;3.10;;
29546;SDS011;40782;47.264;11.330;2024-02-21T00:52:00;4.15;;;2.55;;
29546;SDS011;40782;47.264;11.330;2024-02-21T00:54:27;5.53;;;2.90;;
29546;SDS011;40782;47.264;11.330;2024-02-21T00:56:54;3.17;;;2.45;;
29546;SDS011;40782;47.264;11.330;2024-02-21T00:59:21;4.20;;;2.97;;
29546;SDS011;40782;47.264;11.330;2024-02-21T01:01:50;4.07;;;2.72;;
29546;SDS011;40782;47.264;11.330;2024-02-21T01:04:17;3.22;;;2.33;;
29546;SDS011;40782;47.264;11.330;2024-02-21T01:06:44;2.60;;;2.40;;
29546;SDS011;40782;47.264;11.330;2024-02-21T01:09:11;2.88;;;2.35;;
29546;SDS011;40782;47.264;11.330;2024-02-21T01:11:39;5.15;;;3.13;;
29546;SDS011;40782;47.264;11.330;2024-02-21T01:14:06;4.45;;;2.97;;
29546;SDS011;40782;47.264;11.330;2024-02-21T01:16:33;4.95;;;3.60;;
29546;SDS011;40782;47.264;11.330;2024-02-21T01:19:02;11.27;;;4.38;;
29546;SDS011;40782;47.264;11.330;2024-02-21T01:21:29;7.57;;;3.40;;
29546;SDS011;40782;47.264;11.330;2024-02-21T01:23:56;4.45;;;2.88;;
29546;SDS011;40782;47.264;11.330;2024-02-21T01:26:23;4.68;;;2.78;;
29546;SDS011;40782;47.264;11.330;2024-02-21T01:28:50;3.33;;;2.72;;
29546;SDS011;40782;47.264;11.330;2024-02-21T01:31:18;4.53;;;2.60;;
29546;SDS011;40782;47.264;11.330;2024-02-21T01:33:45;3.15;;;2.40;;
29546;SDS011;40782;47.264;11.330;2024-02-21T01:36:14;5.78;;;2.88;;
29546;SDS011;40782;47.264;11.330;2024-02-21T01:38:41;3.33;;;2.90;;
29546;SDS011;40782;47.264;11.330;2024-02-21T01:41:08;3.58;;;2.42;;
29546;SDS011;40782;47.264;11.330;2024-02-21T01:43:35;2.20;;;2.00;;
29546;SDS011;40782;47.264;11.330;2024-02-21T01:46:03;2.55;;;2.35;;
29546;SDS011;40782;47.264;11.330;2024-02-21T01:48:30;2.88;;;2.42;;
29546;SDS011;40782;47.264;11.330;2024-02-21T01:50:57;4.38;;;3.33;;
29546;SDS011;40782;47.264;11.330;2024-02-21T01:53:29;5.65;;;2.42;;
29546;SDS011;40782;47.264;11.330;2024-02-21T01:56:02;3.47;;;2.58;;
29546;SDS011;40782;47.264;11.330;2024-02-21T01:58:31;3.38;;;2.45;;
29546;SDS011;40782;47.264;11.330;2024-02-21T02:01:02;2.88;;;2.67;;
29546;SDS011;40782;47.264;11.330;2024-02-21T02:03:29;5.80;;;2.40;;
29546;SDS011;40782;47.264;11.330;2024-02-21T02:05:57;3.08;;;2.28;;
29546;SDS011;40782;47.264;11.330;2024-02-21T02:08:24;4.20;;;2.50;;
29546;SDS011;40782;47.264;11.330;2024-02-21T02:10:53;2.55;;;2.28;;
29546;SDS011;40782;47.264;11.330;2024-02-21T02:13:20;3.35;;;2.47;;
29546;SDS011;40782;47.264;11.330;2024-02-21T02:15:48;4.10;;;2.78;;
29546;SDS011;40782;47.264;11.330;2024-02-21T02:18:16;3.13;;;2.30;;
29546;SDS011;40782;47.264;11.330;2024-02-21T02:20:44;2.83;;;2.47;;
29546;SDS011;40782;47.264;11.330;2024-02-21T02:23:12;2.22;;;2.03;;
29546;SDS011;40782;47.264;11.330;2024-02-21T02:25:46;5.25;;;3.45;;
29546;SDS011;40782;47.264;11.330;2024-02-21T02:28:16;6.90;;;3.60;;
29546;SDS011;40782;47.264;11.330;2024-02-21T02:30:43;7.30;;;3.60;;
29546;SDS011;40782;47.264;11.330;2024-02-21T02:33:11;6.13;;;2.97;;
29546;SDS011;40782;47.264;11.330;2024-02-21T02:35:38;6.22;;;2.65;;
29546;SDS011;40782;47.264;11.330;2024-02-21T02:38:05;3.95;;;3.03;;
29546;SDS011;40782;47.264;11.330;2024-02-21T02:40:34;10.50;;;4.55;;
29546;SDS011;40782;47.264;11.330;2024-02-21T02:43:02;8.32;;;4.40;;
29546;SDS011;40782;47.264;11.330;2024-02-21T02:45:29;7.00;;;3.90;;
29546;SDS011;40782;47.264;11.330;2024-02-21T02:47:57;8.43;;;3.70;;
29546;SDS011;40782;47.264;11.330;2024-02-21T02:50:24;9.48;;;4.45;;
29546;SDS011;40782;47.264;11.330;2024-02-21T02:52:51;7.65;;;3.92;;
29546;SDS011;40782;47.264;11.330;2024-02-21T02:55:19;6.25;;;3.20;;
29546;SDS011;40782;47.264;11.330;2024-02-21T02:57:47;4.78;;;3.15;;
29546;SDS011;40782;47.264;11.330;2024-02-21T03:00:15;5.47;;;3.22;;
29546;SDS011;40782;47.264;11.330;2024-02-21T03:02:43;7.82;;;3.55;;
29546;SDS011;40782;47.264;11.330;2024-02-21T03:05:12;4.43;;;3.05;;
29546;SDS011;40782;47.264;11.330;2024-02-21T03:07:41;7.20;;;3.90;;
29546;SDS011;40782;47.264;11.330;2024-02-21T03:10:09;5.40;;;3.03;;
29546;SDS011;40782;47.264;11.330;2024-02-21T03:12:37;7.00;;;4.03;;
29546;SDS011;40782;47.264;11.330;2024-02-21T03:15:06;7.28;;;3.50;;
29546;SDS011;40782;47.264;11.330;2024-02-21T03:17:34;6.45;;;3.72;;
29546;SDS011;40782;47.264;11.330;2024-02-21T03:20:02;5.72;;;3.40;;
29546;SDS011;40782;47.264;11.330;2024-02-21T03:22:30;5.80;;;2.90;;
29546;SDS011;40782;47.264;11.330;2024-02-21T03:24:58;4.30;;;2.70;;
29546;SDS011;40782;47.264;11.330;2024-02-21T03:27:26;6.82;;;2.80;;
29546;SDS011;40782;47.264;11.330;2024-02-21T03:29:53;2.90;;;2.22;;
29546;SDS011;40782;47.264;11.330;2024-02-21T03:32:22;3.08;;;2.25;;
29546;SDS011;40782;47.264;11.330;2024-02-21T03:34:49;3.38;;;2.08;;
29546;SDS011;40782;47.264;11.330;2024-02-21T03:37:16;2.33;;;2.10;;
29546;SDS011;40782;47.264;11.330;2024-02-21T03:39:44;2.55;;;2.08;;
29546;SDS011;40782;47.264;11.330;2024-02-21T03:42:11;2.65;;;2.45;;
29546;SDS011;40782;47.264;11.330;2024-02-21T03:44:38;4.80;;;2.50;;
29546;SDS011;40782;47.264;11.330;2024-02-21T03:47:06;1.70;;;1.58;;
29546;SDS011;40782;47.264;11.330;2024-02-21T03:49:37;3.88;;;2.40;;
29546;SDS011;40782;47.264;11.330;2024-02-21T03:52:04;2.65;;;2.17;;
29546;SDS011;40782;47.264;11.330;2024-02-21T03:54:31;2.30;;;2.10;;
29546;SDS011;40782;47.264;11.330;2024-02-21T03:56:58;2.50;;;2.28;;
29546;SDS011;40782;47.264;11.330;2024-02-21T03:59:25;2.70;;;2.00;;
29546;SDS011;40782;47.264;11.330;2024-02-21T04:01:52;2.42;;;2.22;;
29546;SDS011;40782;47.264;11.330;2024-02-21T04:04:20;4.32;;;2.33;;
29546;SDS011;40782;47.264;11.330;2024-02-21T04:06:48;4.53;;;2.08;;
29546;SDS011;40782;47.264;11.330;2024-02-21T04:09:16;4.20;;;2.60;;
29546;SDS011;40782;47.264;11.330;2024-02-21T04:11:43;3.45;;;2.38;;
29546;SDS011;40782;47.264;11.330;2024-02-21T04:14:11;4.07;;;3.20;;
29546;SDS011;40782;47.264;11.330;2024-02-21T04:16:38;5.30;;;2.88;;
29546;SDS011;40782;47.264;11.330;2024-02-21T04:19:05;3.47;;;2.85;;
29546;SDS011;40782;47.264;11.330;2024-02-21T04:21:32;4.25;;;3.03;;
29546;SDS011;40782;47.264;11.330;2024-02-21T04:24:01;4.75;;;2.97;;
29546;SDS011;40782;47.264;11.330;2024-02-21T04:26:30;3.70;;;3.40;;
29546;SDS011;40782;47.264;11.330;2024-02-21T04:28:57;6.28;;;3.25;;
29546;SDS011;40782;47.264;11.330;2024-02-21T04:31:24;4.15;;;3.33;;
29546;SDS011;40782;47.264;11.330;2024-02-21T04:33:51;6.32;;;3.58;;
29546;SDS011;40782;47.264;11.330;2024-02-21T04:36:18;5.60;;;3.42;;
29546;SDS011;40782;47.264;11.330;2024-02-21T04:38:46;6.25;;;3.38;;
29546;SDS011;40782;47.264;11.330;2024-02-21T04:41:15;6.20;;;3.55;;
29546;SDS011;40782;47.264;11.330;2024-02-21T04:43:42;4.47;;;3.50;;
29546;SDS011;40782;47.264;11.330;2024-02-21T04:46:09;5.50;;;3.63;;
29546;SDS011;40782;47.264;11.330;2024-02-21T04:48:36;5.60;;;3.17;;
29546;SDS011;40782;47.264;11.330;2024-02-21T04:51:04;13.23;;;6.88;;
29546;SDS011;40782;47.264;11.330;2024-02-21T04:53:31;13.63;;;5.18;;
29546;SDS011;40782;47.264;11.330;2024-02-21T04:55:58;5.53;;;3.80;;
29546;SDS011;40782;47.264;11.330;2024-02-21T04:58:26;5.47;;;3.13;;
29546;SDS011;40782;47.264;11.330;2024-02-21T05:00:54;7.18;;;3.17;;
29546;SDS011;40782;47.264;11.330;2024-02-21T05:03:21;2.58;;;2.38;;
29546;SDS011;40782;47.264;11.330;2024-02-21T05:05:49;2.83;;;2.63;;
29546;SDS011;40782;47.264;11.330;2024-02-21T05:08:16;7.82;;;2.88;;
29546;SDS011;40782;47.264;11.330;2024-02-21T05:10:43;5.82;;;3.30;;
29546;SDS011;40782;47.264;11.330;2024-02-21T05:13:10;3.63;;;2.78;;
29546;SDS011;40782;47.264;11.330;2024-02-21T05:15:39;4.30;;;3.15;;
29546;SDS011;40782;47.264;11.330;2024-02-21T05:18:06;7.80;;;3.35;;
29546;SDS011;40782;47.264;11.330;2024-02-21T05:20:33;4.53;;;3.20;;
29546;SDS011;40782;47.264;11.330;2024-02-21T05:23:00;6.05;;;3.30;;
29546;SDS011;40782;47.264;11.330;2024-02-21T05:25:27;4.38;;;3.30;;
29546;SDS011;40782;47.264;11.330;2024-02-21T05:27:54;5.18;;;3.30;;
29546;SDS011;40782;47.264;11.330;2024-02-21T05:32:55;3.85;;;3.20;;
29546;SDS011;40782;47.264;11.330;2024-02-21T05:35:24;6.63;;;3.33;;
29546;SDS011;40782;47.264;11.330;2024-02-21T05:37:53;6.25;;;3.38;;
29546;SDS011;40782;47.264;11.330;2024-02-21T05:40:20;4.82;;;3.67;;
29546;SDS011;40782;47.264;11.330;2024-02-21T05:42:47;5.05;;;3.30;;
29546;SDS011;40782;47.264;11.330;2024-02-21T05:45:16;5.32;;;3.50;;
29546;SDS011;40782;47.264;11.330;2024-02-21T05:47:43;5.03;;;3.38;;
29546;SDS011;40782;47.264;11.330;2024-02-21T05:50:12;4.43;;;3.45;;
29546;SDS011;40782;47.264;11.330;2024-02-21T05:52:39;4.18;;;3.40;;
29546;SDS011;40782;47.264;11.330;2024-02-21T05:55:06;6.05;;;3.55;;
29546;SDS011;40782;47.264;11.330;2024-02-21T05:57:35;5.22;;;3.85;;
29546;SDS011;40782;47.264;11.330;2024-02-21T06:00:03;7.70;;;3.70;;
29546;SDS011;40782;47.264;11.330;2024-02-21T06:02:31;6.10;;;3.80;;
29546;SDS011;40782;47.264;11.330;2024-02-21T06:04:58;4.55;;;3.60;;
29546;SDS011;40782;47.264;11.330;2024-02-21T06:07:27;8.02;;;3.67;;
29546;SDS011;40782;47.264;11.330;2024-02-21T06:09:54;5.57;;;4.00;;
29546;SDS011;40782;47.264;11.330;2024-02-21T06:12:21;6.30;;;4.03;;
29546;SDS011;40782;47.264;11.330;2024-02-21T06:14:48;8.10;;;4.07;;
29546;SDS011;40782;47.264;11.330;2024-02-21T06:17:15;8.88;;;4.35;;
29546;SDS011;40782;47.264;11.330;2024-02-21T06:19:43;7.82;;;4.15;;
29546;SDS011;40782;47.264;11.330;2024-02-21T06:22:10;6.38;;;4.43;;
29546;SDS011;40782;47.264;11.330;2024-02-21T06:24:39;9.90;;;4.10;;
29546;SDS011;40782;47.264;11.330;2024-02-21T06:27:06;10.23;;;4.82;;
29546;SDS011;40782;47.264;11.330;2024-02-21T06:29:34;7.60;;;4.50;;
29546;SDS011;40782;47.264;11.330;2024-02-21T06:32:01;9.00;;;4.32;;
29546;SDS011;40782;47.264;11.330;2024-02-21T06:34:28;7.00;;;4.03;;
29546;SDS011;40782;47.264;11.330;2024-02-21T06:36:55;8.15;;;4.40;;
29546;SDS011;40782;47.264;11.330;2024-02-21T06:39:23;9.75;;;4.75;;
29546;SDS011;40782;47.264;11.330;2024-02-21T06:41:51;6.65;;;3.70;;
29546;SDS011;40782;47.264;11.330;2024-02-21T06:44:19;8.02;;;4.75;;
29546;SDS011;40782;47.264;11.330;2024-02-21T06:46:47;5.57;;;3.90;;
29546;SDS011;40782;47.264;11.330;2024-02-21T06:49:14;10.73;;;4.03;;
29546;SDS011;40782;47.264;11.330;2024-02-21T06:51:42;8.00;;;4.00;;
29546;SDS011;40782;47.264;11.330;2024-02-21T06:54:09;6.68;;;4.28;;
29546;SDS011;40782;47.264;11.330;2024-02-21T06:56:36;5.30;;;4.28;;
29546;SDS011;40782;47.264;11.330;2024-02-21T06:59:05;6.10;;;3.78;;
29546;SDS011;40782;47.264;11.330;2024-02-21T07:01:32;6.68;;;4.57;;
29546;SDS011;40782;47.264;11.330;2024-02-21T07:03:59;9.80;;;5.50;;
29546;SDS011;40782;47.264;11.330;2024-02-21T07:06:27;7.47;;;4.85;;
29546;SDS011;40782;47.264;11.330;2024-02-21T07:08:54;7.55;;;5.00;;
29546;SDS011;40782;47.264;11.330;2024-02-21T07:11:21;8.98;;;4.35;;
29546;SDS011;40782;47.264;11.330;2024-02-21T07:13:49;6.82;;;4.47;;
29546;SDS011;40782;47.264;11.330;2024-02-21T07:16:17;9.05;;;5.13;;
29546;SDS011;40782;47.264;11.330;2024-02-21T07:18:44;12.48;;;7.28;;
29546;SDS011;40782;47.264;11.330;2024-02-21T07:21:12;22.45;;;14.75;;
29546;SDS011;40782;47.264;11.330;2024-02-21T07:23:40;27.65;;;17.55;;
29546;SDS011;40782;47.264;11.330;2024-02-21T07:26:08;10.15;;;6.50;;
29546;SDS011;40782;47.264;11.330;2024-02-21T07:28:35;16.10;;;5.60;;
29546;SDS011;40782;47.264;11.330;2024-02-21T07:31:03;8.70;;;6.03;;
29546;SDS011;40782;47.264;11.330;2024-02-21T07:33:32;7.32;;;4.40;;
29546;SDS011;40782;47.264;11.330;2024-02-21T07:36:00;7.20;;;4.22;;
29546;SDS011;40782;47.264;11.330;2024-02-21T07:38:28;8.30;;;4.85;;
29546;SDS011;40782;47.264;11.330;2024-02-21T07:40:55;9.55;;;4.68;;
29546;SDS011;40782;47.264;11.330;2024-02-21T07:43:22;9.75;;;4.80;;
29546;SDS011;40782;47.264;11.330;2024-02-21T07:45:51;9.95;;;4.47;;
29546;SDS011;40782;47.264;11.330;2024-02-21T07:48:20;4.55;;;3.95;;
29546;SDS011;40782;47.264;11.330;2024-02-21T07:50:51;7.03;;;4.47;;
29546;SDS011;40782;47.264;11.330;2024-02-21T07:53:19;6.15;;;4.15;;
29546;SDS011;40782;47.264;11.330;2024-02-21T07:55:47;7.45;;;4.30;;
29546;SDS011;40782;47.264;11.330;2024-02-21T07:58:14;7.82;;;4.18;;
29546;SDS011;40782;47.264;11.330;2024-02-21T08:00:41;6.18;;;3.80;;
29546;SDS011;40782;47.264;11.330;2024-02-21T08:03:08;12.48;;;5.00;;
29546;SDS011;40782;47.264;11.330;2024-02-21T08:05:35;9.35;;;4.30;;
29546;SDS011;40782;47.264;11.330;2024-02-21T08:08:04;8.90;;;4.47;;
29546;SDS011;40782;47.264;11.330;2024-02-21T08:10:32;9.52;;;4.45;;
29546;SDS011;40782;47.264;11.330;2024-02-21T08:12:59;7.55;;;3.67;;
29546;SDS011;40782;47.264;11.330;2024-02-21T08:15:26;6.45;;;3.40;;
29546;SDS011;40782;47.264;11.330;2024-02-21T08:17:54;7.63;;;4.15;;
29546;SDS011;40782;47.264;11.330;2024-02-21T08:20:24;4.45;;;3.55;;
29546;SDS011;40782;47.264;11.330;2024-02-21T08:22:52;5.70;;;4.00;;
29546;SDS011;40782;47.264;11.330;2024-02-21T08:25:20;8.32;;;4.38;;
29546;SDS011;40782;47.264;11.330;2024-02-21T08:27:48;12.20;;;4.38;;
29546;SDS011;40782;47.264;11.330;2024-02-21T08:30:16;6.25;;;3.88;;
29546;SDS011;40782;47.264;11.330;2024-02-21T08:32:44;8.25;;;3.50;;
29546;SDS011;40782;47.264;11.330;2024-02-21T08:35:11;8.63;;;3.83;;
29546;SDS011;40782;47.264;11.330;2024-02-21T08:37:39;9.10;;;3.78;;
29546;SDS011;40782;47.264;11.330;2024-02-21T08:40:06;5.15;;;3.53;;
29546;SDS011;40782;47.264;11.330;2024-02-21T08:42:36;6.68;;;3.53;;
29546;SDS011;40782;47.264;11.330;2024-02-21T08:45:05;6.22;;;3.72;;
29546;SDS011;40782;47.264;11.330;2024-02-21T08:47:33;5.40;;;3.65;;
29546;SDS011;40782;47.264;11.330;2024-02-21T08:50:01;5.68;;;3.63;;
29546;SDS011;40782;47.264;11.330;2024-02-21T08:52:31;5.40;;;3.80;;
29546;SDS011;40782;47.264;11.330;2024-02-21T08:54:58;5.15;;;3.85;;
29546;SDS011;40782;47.264;11.330;2024-02-21T08:57:25;5.13;;;3.92;;
29546;SDS011;40782;47.264;11.330;2024-02-21T08:59:54;3.78;;;3.40;;
29546;SDS011;40782;47.264;11.330;2024-02-21T09:02:21;6.90;;;3.35;;
29546;SDS011;40782;47.264;11.330;2024-02-21T09:04:49;4.53;;;3.60;;
29546;SDS011;40782;47.264;11.330;2024-02-21T09:07:16;4.45;;;2.90;;
29546;SDS011;40782;47.264;11.330;2024-02-21T09:09:44;7.22;;;3.65;;
29546;SDS011;40782;47.264;11.330;2024-02-21T09:12:12;7.78;;;2.53;;
29546;SDS011;40782;47.264;11.330;2024-02-21T09:14:40;4.78;;;3.42;;
29546;SDS011;40782;47.264;11.330;2024-02-21T09:17:09;4.18;;;2.83;;
29546;SDS011;40782;47.264;11.330;2024-02-21T09:19:36;6.15;;;2.97;;
29546;SDS011;40782;47.264;11.330;2024-02-21T09:22:03;6.13;;;2.22;;
29546;SDS011;40782;47.264;11.330;2024-02-21T09:24:30;4.07;;;2.22;;
29546;SDS011;40782;47.264;11.330;2024-02-21T09:26:57;3.78;;;2.25;;
29546;SDS011;40782;47.264;11.330;2024-02-21T09:29:25;3.95;;;2.25;;
29546;SDS011;40782;47.264;11.330;2024-02-21T09:31:52;2.78;;;1.75;;
29546;SDS011;40782;47.264;11.330;2024-02-21T09:34:20;4.13;;;2.05;;
29546;SDS011;40782;47.264;11.330;2024-02-21T09:36:47;2.35;;;2.08;;
29546;SDS011;40782;47.264;11.330;2024-02-21T09:39:15;4.10;;;1.92;;
29546;SDS011;40782;47.264;11.330;2024-02-21T09:41:45;2.60;;;1.98;;
29546;SDS011;40782;47.264;11.330;2024-02-21T09:44:17;3.70;;;2.05;;
29546;SDS011;40782;47.264;11.330;2024-02-21T09:46:49;3.10;;;1.60;;
29546;SDS011;40782;47.264;11.330;2024-02-21T09:49:27;2.20;;;2.00;;
29546;SDS011;40782;47.264;11.330;2024-02-21T09:51:57;4.25;;;1.60;;
29546;SDS011;40782;47.264;11.330;2024-02-21T09:54:28;6.50;;;1.90;;
29546;SDS011;40782;47.264;11.330;2024-02-21T09:56:55;2.90;;;1.88;;
29546;SDS011;40782;47.264;11.330;2024-02-21T09:59:22;2.88;;;1.85;;
29546;SDS011;40782;47.264;11.330;2024-02-21T10:01:51;4.82;;;1.65;;
29546;SDS011;40782;47.264;11.330;2024-02-21T10:04:18;1.42;;;1.33;;
29546;SDS011;40782;47.264;11.330;2024-02-21T10:06:47;1.65;;;1.40;;
29546;SDS011;40782;47.264;11.330;2024-02-21T10:09:21;4.22;;;2.05;;
29546;SDS011;40782;47.264;11.330;2024-02-21T10:11:49;2.75;;;1.55;;
29546;SDS011;40782;47.264;11.330;2024-02-21T10:14:17;1.90;;;1.50;;
29546;SDS011;40782;47.264;11.330;2024-02-21T10:16:45;3.03;;;1.30;;
29546;SDS011;40782;47.264;11.330;2024-02-21T10:19:17;1.75;;;1.13;;
29546;SDS011;40782;47.264;11.330;2024-02-21T10:21:57;3.53;;;1.40;;
29546;SDS011;40782;47.264;11.330;2024-02-21T10:24:33;3.13;;;1.27;;
29546;SDS011;40782;47.264;11.330;2024-02-21T10:27:03;1.55;;;1.20;;
29546;SDS011;40782;47.264;11.330;2024-02-21T10:29:33;1.60;;;1.20;;
29546;SDS011;40782;47.264;11.330;2024-02-21T10:32:04;1.08;;;1.00;;
29546;SDS011;40782;47.264;11.330;2024-02-21T10:34:32;1.60;;;1.30;;
29546;SDS011;40782;47.264;11.330;2024-02-21T10:37:00;3.97;;;1.60;;
29546;SDS011;40782;47.264;11.330;2024-02-21T10:39:30;2.42;;;1.58;;
29546;SDS011;40782;47.264;11.330;2024-02-21T10:41:59;1.20;;;1.10;;
29546;SDS011;40782;47.264;11.330;2024-02-21T10:44:29;2.93;;;1.37;;
29546;SDS011;40782;47.264;11.330;2024-02-21T10:46:57;1.27;;;1.00;;
29546;SDS011;40782;47.264;11.330;2024-02-21T10:49:25;1.30;;;1.13;;
29546;SDS011;40782;47.264;11.330;2024-02-21T10:51:54;2.00;;;1.02;;
29546;SDS011;40782;47.264;11.330;2024-02-21T10:54:34;5.72;;;1.00;;
29546;SDS011;40782;47.264;11.330;2024-02-21T10:57:11;1.40;;;1.00;;
29546;SDS011;40782;47.264;11.330;2024-02-21T10:59:39;1.27;;;1.02;;
29546;SDS011;40782;47.264;11.330;2024-02-21T11:02:07;0.65;;;0.65;;
29546;SDS011;40782;47.264;11.330;2024-02-21T11:04:34;2.15;;;1.00;;
29546;SDS011;40782;47.264;11.330;2024-02-21T11:07:03;0.95;;;0.90;;
29546;SDS011;40782;47.264;11.330;2024-02-21T11:09:32;2.25;;;0.95;;
29546;SDS011;40782;47.264;11.330;2024-02-21T11:12:02;1.95;;;1.10;;
29546;SDS011;40782;47.264;11.330;2024-02-21T11:14:30;1.10;;;0.90;;
29546;SDS011;40782;47.264;11.330;2024-02-21T11:17:01;3.33;;;1.10;;
29546;SDS011;40782;47.264;11.330;2024-02-21T11:19:29;1.02;;;0.93;;
29546;SDS011;40782;47.264;11.330;2024-02-21T11:21:57;1.25;;;1.15;;
29546;SDS011;40782;47.264;11.330;2024-02-21T11:24:26;3.97;;;1.23;;
29546;SDS011;40782;47.264;11.330;2024-02-21T11:26:56;1.25;;;0.88;;
29546;SDS011;40782;47.264;11.330;2024-02-21T11:29:39;2.05;;;0.75;;
29546;SDS011;40782;47.264;11.330;2024-02-21T11:32:09;0.73;;;0.73;;
29546;SDS011;40782;47.264;11.330;2024-02-21T11:34:37;1.17;;;0.80;;
29546;SDS011;40782;47.264;11.330;2024-02-21T11:37:12;1.52;;;0.90;;
29546;SDS011;40782;47.264;11.330;2024-02-21T11:39:42;0.82;;;0.82;;
29546;SDS011;40782;47.264;11.330;2024-02-21T11:42:10;1.80;;;0.90;;
29546;SDS011;40782;47.264;11.330;2024-02-21T11:44:38;0.70;;;0.70;;
29546;SDS011;40782;47.264;11.330;2024-02-21T11:47:07;0.77;;;0.77;;
29546;SDS011;40782;47.264;11.330;2024-02-21T11:49:36;1.40;;;0.90;;
29546;SDS011;40782;47.264;11.330;2024-02-21T11:52:05;1.20;;;0.70;;
29546;SDS011;40782;47.264;11.330;2024-02-21T11:54:32;0.90;;;0.70;;
29546;SDS011;40782;47.264;11.330;2024-02-21T11:57:00;2.67;;;0.80;;
29546;SDS011;40782;47.264;11.330;2024-02-21T11:59:31;0.60;;;0.60;;
29546;SDS011;40782;47.264;11.330;2024-02-21T12:01:59;1.35;;;0.65;;
29546;SDS011;40782;47.264;11.330;2024-02-21T12:04:27;0.93;;;0.70;;
29546;SDS011;40782;47.264;11.330;2024-02-21T12:06:56;0.63;;;0.55;;
29546;SDS011;40782;47.264;11.330;2024-02-21T12:09:24;0.70;;;0.70;;
29546;SDS011;40782;47.264;11.330;2024-02-21T12:11:58;1.45;;;0.73;;
29546;SDS011;40782;47.264;11.330;2024-02-21T12:14:28;2.03;;;0.90;;
29546;SDS011;40782;47.264;11.330;2024-02-21T12:16:57;1.23;;;0.80;;
29546;SDS011;40782;47.264;11.330;2024-02-21T12:19:25;3.33;;;0.98;;
29546;SDS011;40782;47.264;11.330;2024-02-21T12:21:53;0.88;;;0.70;;
29546;SDS011;40782;47.264;11.330;2024-02-21T12:24:23;2.13;;;1.00;;
29546;SDS011;40782;47.264;11.330;2024-02-21T12:26:50;0.60;;;0.60;;
29546;SDS011;40782;47.264;11.330;2024-02-21T12:29:18;1.00;;;0.70;;
29546;SDS011;40782;47.264;11.330;2024-02-21T12:31:47;1.05;;;0.70;;
29546;SDS011;40782;47.264;11.330;2024-02-21T12:34:14;1.30;;;0.60;;
29546;SDS011;40782;47.264;11.330;2024-02-21T12:36:42;0.63;;;0.47;;
29546;SDS011;40782;47.264;11.330;2024-02-21T12:39:10;0.50;;;0.50;;
29546;SDS011;40782;47.264;11.330;2024-02-21T12:41:37;0.80;;;0.63;;
29546;SDS011;40782;47.264;11.330;2024-02-21T12:44:06;0.55;;;0.47;;
29546;SDS011;40782;47.264;11.330;2024-02-21T12:46:33;0.70;;;0.65;;
29546;SDS011;40782;47.264;11.330;2024-02-21T12:49:01;0.40;;;0.40;;
29546;SDS011;40782;47.264;11.330;2024-02-21T12:51:29;1.27;;;0.60;;
29546;SDS011;40782;47.264;11.330;2024-02-21T12:53:57;1.23;;;0.77;;
29546;SDS011;40782;47.264;11.330;2024-02-21T12:56:24;1.60;;;0.70;;
29546;SDS011;40782;47.264;11.330;2024-02-21T12:58:53;0.55;;;0.55;;
29546;SDS011;40782;47.264;11.330;2024-02-21T13:01:20;1.20;;;0.82;;
29546;SDS011;40782;47.264;11.330;2024-02-21T13:03:49;0.70;;;0.70;;
29546;SDS011;40782;47.264;11.330;2024-02-21T13:06:18;0.73;;;0.73;;
29546;SDS011;40782;47.264;11.330;2024-02-21T13:08:45;3.63;;;0.50;;
29546;SDS011;40782;47.264;11.330;2024-02-21T13:11:12;2.22;;;0.95;;
29546;SDS011;40782;47.264;11.330;2024-02-21T13:13:39;1.85;;;0.80;;
29546;SDS011;40782;47.264;11.330;2024-02-21T13:16:06;1.17;;;0.60;;
29546;SDS011;40782;47.264;11.330;2024-02-21T13:18:35;1.08;;;0.60;;
29546;SDS011;40782;47.264;11.330;2024-02-21T13:21:04;2.17;;;0.47;;
29546;SDS011;40782;47.264;11.330;2024-02-21T13:23:32;1.02;;;0.43;;
29546;SDS011;40782;47.264;11.330;2024-02-21T13:26:00;0.65;;;0.65;;
29546;SDS011;40782;47.264;11.330;2024-02-21T13:28:27;2.00;;;0.70;;
29546;SDS011;40782;47.264;11.330;2024-02-21T13:30:54;1.33;;;0.60;;
29546;SDS011;40782;47.264;11.330;2024-02-21T13:33:22;1.90;;;0.80;;
29546;SDS011;40782;47.264;11.330;2024-02-21T13:35:49;0.43;;;0.40;;
29546;SDS011;40782;47.264;11.330;2024-02-21T13:38:17;1.65;;;0.57;;
29546;SDS011;40782;47.264;11.330;2024-02-21T13:40:46;0.85;;;0.60;;
29546;SDS011;40782;47.264;11.330;2024-02-21T13:43:13;0.77;;;0.60;;
29546;SDS011;40782;47.264;11.330;2024-02-21T13:45:40;1.35;;;0.70;;
29546;SDS011;40782;47.264;11.330;2024-02-21T13:48:21;1.02;;;0.52;;
29546;SDS011;40782;47.264;11.330;2024-02-21T13:50:49;1.08;;;0.52;;
29546;SDS011;40782;47.264;11.330;2024-02-21T13:53:17;0.93;;;0.35;;
29546;SDS011;40782;47.264;11.330;2024-02-21T13:55:47;0.95;;;0.70;;
29546;SDS011;40782;47.264;11.330;2024-02-21T13:58:15;0.47;;;0.47;;
29546;SDS011;40782;47.264;11.330;2024-02-21T14:00:43;0.68;;;0.68;;
29546;SDS011;40782;47.264;11.330;2024-02-21T14:03:10;1.52;;;0.93;;
29546;SDS011;40782;47.264;11.330;2024-02-21T14:05:37;1.40;;;0.60;;
29546;SDS011;40782;47.264;11.330;2024-02-21T14:08:06;2.80;;;0.80;;
29546;SDS011;40782;47.264;11.330;2024-02-21T14:10:33;1.02;;;0.50;;
29546;SDS011;40782;47.264;11.330;2024-02-21T14:13:01;0.60;;;0.60;;
29546;SDS011;40782;47.264;11.330;2024-02-21T14:15:29;1.35;;;0.77;;
29546;SDS011;40782;47.264;11.330;2024-02-21T14:17:56;0.70;;;0.70;;
29546;SDS011;40782;47.264;11.330;2024-02-21T14:20:23;1.30;;;0.65;;
29546;SDS011;40782;47.264;11.330;2024-02-21T14:22:50;0.93;;;0.77;;
29546;SDS011;40782;47.264;11.330;2024-02-21T14:25:18;0.73;;;0.73;;
29546;SDS011;40782;47.264;11.330;2024-02-21T14:27:45;3.35;;;0.77;;
29546;SDS011;40782;47.264;11.330;2024-02-21T14:30:13;1.00;;;0.90;;
29546;SDS011;40782;47.264;11.330;2024-02-21T14:32:43;0.88;;;0.82;;
29546;SDS011;40782;47.264;11.330;2024-02-21T14:35:10;0.90;;;0.90;;
29546;SDS011;40782;47.264;11.330;2024-02-21T14:37:37;0.73;;;0.60;;
29546;SDS011;40782;47.264;11.330;2024-02-21T14:40:05;1.48;;;0.70;;